Terminal Aerodrome Forecast
Issued by NWS

Home | Current Version | Previous Version | Text Only | Print | Product List | Glossary On
Versions: 1 2 3 4 5 6 7 8 9 10 11 12 13 14 15 16
978
FTUS46 KMTR 081138
TAFOAK
TAF
KOAK 081138Z 0812/0918 09007KT P6SM SKC
     FM082000 30005KT P6SM SKC
     FM090300 06006KT P6SM SKC=

USA.gov is the U.S. government's official web portal to all federal, state and local government web resources and services.